Wolf, WY (82844)

4:51 AM MST on December 25, 2014 (GMT -0700)
HADS RAPID CREEK (RAIN) NEAR BIG HORN WY US | Change Station
CLOSE
Current Station
Personal Weather Station
Location: Wolf, WY
Elevation: 7048 ft
Nearby Weather Stations
Active Advisory: Winter Storm Warning

Elev 7048 ft 44.64 °N, 107.18 °W | Updated 1 hour ago

Snow
Snow
20 °F
Feels Like 20 °F
N
Wind Variable Wind from North
Gusts 0.0 mph

Today
High -- | Low -- °F
--% Chance of Precip.
Yesterday
High -- | Low -- °F
Precip. -- in
7:45 AM 4:33 PM
Waxing Crescent, 15% visible
Pressure 29.65 in
Visibility 1.5 miles
Clouds Mostly Cloudy 500 ft
Overcast 1000 ft
Windchill 20 °F
Dew Point Not available.
Humidity Not available.
Rainfall 0.00 in
Snow Depth Not available.
UV 0 out of 12
Pollen .10 out of 12
Air Quality Not available.
Flu Activity Not available.
METAR KSHR 251053Z AUTO 35010KT 1 1/2SM -SN BR BKN005 OVC010 M01/M03 A2958 RMK AO2 SLP041 P0003 T10111028

More Conditions Fewer Conditions

Pressure 29.65 in
Visibility 1.5 miles
Clouds Mostly Cloudy 500 ft
Overcast 1000 ft
Windchill 20 °F
Dew Point Not available.
Humidity Not available.
Rainfall 0.00 in
Snow Depth Not available.
UV 0 out of 12
Pollen .10 out of 12
Air Quality Not available.
Flu Activity Not available.
METAR KSHR 251053Z AUTO 35010KT 1 1/2SM -SN BR BKN005 OVC010 M01/M03 A2958 RMK AO2 SLP041 P0003 T10111028

More Conditions Fewer Conditions

10-Day Weather Forecast

Almanac

Astronomy

Dec. 25, 2014 Rise Set
Actual Time
Civil Twilight
Nautical Twilight
Astronomical Twilight
Moon
Length of Visible Light
Length of Day
Tomorrow will be .
, % of the Moon is Illuminated

Today's Extremes

State Highs State Lows

Community

WunderPhotos

Upload Photos

1,780,264 photos uploaded!

WunderBlogs® & News

Nearby

Air Quality

  Air Quality AQ Index Pollutant
Not available.

Snow Depth

Station Depth Elevation

Earthquake Activity

City Distance Mag. Time & Date
Minimum magnitude displayed is 2.5.

Coastal Water Temperatures

Place Temperature

Nearby Weather Stations